Auk-Alfa, Netherlands

7:29 AM CEST on September 22, 2014 (GMT +0200)
Ekofisk | Change Station
CLOSE
Current Station
Airport
Location: Ekofisk,
Elevation: 10 ft
Nearby Weather Stations

Elev 10 ft 56.55 °N, 3.25 °E | Updated 9 minutes ago

Mostly Cloudy
Mostly Cloudy
55 °F
Feels Like 55 °F
N
24
Wind Variable Wind from NW
Gusts 36 mph

Today
High -- | Low -- °F
--% Chance of Precip.
Yesterday
High -- | Low -- °F
Precip. -- in
7:36 AM 7:51 PM
Waning Crescent, 4% visible
Pressure 30.12 in
Visibility 6.2 miles
Clouds Scattered Clouds 2500 ft
Mostly Cloudy 5000 ft
Dew Point 46 °F
Humidity 72%
Rainfall 0.00 in
Snow Depth Not available.
UV 0 out of 12
Pollen Not available.
Air Quality Not available.
Flu Activity Not available.
METAR ENEK 220520Z 31021G31KT 270V360 9999 SCT025 BKN050 13/08 Q1020 W15/S5

More Conditions Fewer Conditions

Pressure 30.12 in
Visibility 6.2 miles
Clouds Scattered Clouds 2500 ft
Mostly Cloudy 5000 ft
Dew Point 46 °F
Humidity 72%
Rainfall 0.00 in
Snow Depth Not available.
UV 0 out of 12
Pollen Not available.
Air Quality Not available.
Flu Activity Not available.
METAR ENEK 220520Z 31021G31KT 270V360 9999 SCT025 BKN050 13/08 Q1020 W15/S5

More Conditions Fewer Conditions

10-Day Weather Forecast

Almanac

Astronomy

Sep. 22, 2014 Rise Set
Actual Time 7:36 AM CEST 7:51 PM CEST
Civil Twilight 6:58 AM CEST 8:28 PM CEST
Nautical Twilight 6:13 AM CEST 9:13 PM CEST
Astronomical Twilight 5:26 AM CEST 10:00 PM CEST
Moon 5:37 AM CEST 6:59 PM CEST
Length of Visible Light 13h 29m
Length of Day
12h 14m
Tomorrow will be 4m 41s shorter.
Waning Crescent, 4% of the Moon is Illuminated
Today
Waning Crescent
Sep 24
New
Oct 1
First Quarter
Oct 8
Full
Oct 15
Last Quarter

Yesterday's Extremes

Country Highs Country Lows

Community

WunderPhotos

Upload Photos

1,755,391 photos uploaded!

Nearby

Snow Depth

Not available.

Earthquake Activity

City Distance Mag. Time & Date
No recent earthquake activity has been reported nearby.
Minimum magnitude displayed is 2.5.

Coastal Water Temperatures

Place Temperature
No Stations Reporting

Nearby Weather Stations